createdAt,value
2022-11-16T00:04:48.000Z,24.80
2022-11-16T00:14:47.000Z,25.00
2022-11-16T00:34:47.000Z,22.60
2022-11-16T00:44:47.000Z,28.70
2022-11-16T00:54:47.000Z,27.90
2022-11-16T01:04:47.000Z,26.50
2022-11-16T01:14:47.000Z,30.00
2022-11-16T01:24:47.000Z,32.30
2022-11-16T01:34:47.000Z,27.60
2022-11-16T01:44:47.000Z,28.10
2022-11-16T02:04:46.000Z,26.20
2022-11-16T02:14:46.000Z,25.70
2022-11-16T02:24:46.000Z,29.50
2022-11-16T02:34:46.000Z,28.30
2022-11-16T02:44:46.000Z,29.60
2022-11-16T02:54:46.000Z,32.10
2022-11-16T03:04:46.000Z,29.90
2022-11-16T03:30:04.000Z,27.10
2022-11-16T03:40:21.000Z,28.20
2022-11-16T03:40:21.000Z,26.90
2022-11-16T03:50:21.000Z,26.00
2022-11-16T04:00:20.000Z,27.20
2022-11-16T04:10:20.000Z,30.10
2022-11-16T04:20:20.000Z,28.10
2022-11-16T04:30:20.000Z,29.20
2022-11-16T04:40:20.000Z,28.30
2022-11-16T04:50:20.000Z,28.30
2022-11-16T05:10:19.000Z,34.80
2022-11-16T05:20:19.000Z,30.20
2022-11-16T05:30:19.000Z,29.30
2022-11-16T05:40:19.000Z,27.50
2022-11-16T05:50:19.000Z,27.30
2022-11-16T06:25:54.000Z,26.70
2022-11-16T06:25:54.000Z,28.70
2022-11-16T06:35:54.000Z,26.00
2022-11-16T06:45:55.000Z,30.20
2022-11-16T06:55:55.000Z,24.50
2022-11-16T07:05:55.000Z,27.70
2022-11-16T07:15:56.000Z,26.70
2022-11-16T07:25:56.000Z,23.90
2022-11-16T07:35:56.000Z,23.70
2022-11-16T07:55:57.000Z,21.40
2022-11-16T08:05:57.000Z,19.60
2022-11-16T08:15:58.000Z,21.30
2022-11-16T08:25:58.000Z,18.10
2022-11-16T08:25:58.000Z,18.10
2022-11-16T08:35:58.000Z,17.60
2022-11-16T08:45:59.000Z,18.80
2022-11-16T08:55:59.000Z,18.90
2022-11-16T09:05:59.000Z,19.80
2022-11-16T09:25:59.000Z,19.80
2022-11-16T09:35:59.000Z,20.00
2022-11-16T09:45:59.000Z,20.80
2022-11-16T09:56:00.000Z,19.70
2022-11-16T10:06:00.000Z,20.60
2022-11-16T10:16:00.000Z,20.70
2022-11-16T10:26:00.000Z,20.60
2022-11-16T10:36:00.000Z,22.60
2022-11-16T10:56:00.000Z,21.70
2022-11-16T11:06:00.000Z,23.10
2022-11-16T11:16:00.000Z,21.20
2022-11-16T11:26:00.000Z,22.90
2022-11-16T11:36:00.000Z,25.30
2022-11-16T11:46:00.000Z,23.70
2022-11-16T11:56:00.000Z,27.00
2022-11-16T12:06:01.000Z,28.90
2022-11-16T12:26:01.000Z,31.30
2022-11-16T12:36:01.000Z,30.50
2022-11-16T12:46:01.000Z,33.70
2022-11-16T12:56:08.000Z,32.80
2022-11-16T13:06:01.000Z,35.00
2022-11-16T13:16:01.000Z,37.20
2022-11-16T13:26:01.000Z,36.40
2022-11-16T13:36:01.000Z,41.80
2022-11-16T13:56:01.000Z,45.10
2022-11-16T14:06:01.000Z,42.90
2022-11-16T14:16:02.000Z,53.40
2022-11-16T14:26:02.000Z,56.00
2022-11-16T14:36:02.000Z,65.80
2022-11-16T14:46:02.000Z,60.50
2022-11-16T14:56:02.000Z,66.60
2022-11-16T15:06:02.000Z,67.20
2022-11-16T15:41:20.000Z,64.50
2022-11-16T15:41:20.000Z,59.10
2022-11-16T15:51:20.000Z,57.60
2022-11-16T16:01:20.000Z,57.00
2022-11-16T16:11:20.000Z,57.00
2022-11-16T16:21:21.000Z,53.30
2022-11-16T16:31:21.000Z,52.90
2022-11-16T16:41:21.000Z,43.70
2022-11-16T16:51:21.000Z,38.60
2022-11-16T17:11:21.000Z,38.40
2022-11-16T17:21:22.000Z,39.70
2022-11-16T17:31:22.000Z,37.40
2022-11-16T17:41:22.000Z,38.90
2022-11-16T17:51:22.000Z,40.30
2022-11-16T18:01:23.000Z,34.10
2022-11-16T18:11:23.000Z,28.50
2022-11-16T18:21:23.000Z,30.30
2022-11-16T18:41:24.000Z,26.40
2022-11-16T18:51:24.000Z,18.90
2022-11-16T19:01:24.000Z,22.00
2022-11-16T19:11:24.000Z,14.60
2022-11-16T19:52:00.000Z,13.30
2022-11-16T19:52:00.000Z,21.20
2022-11-16T20:02:00.000Z,13.40
2022-11-16T20:12:00.000Z,11.90
2022-11-16T20:22:00.000Z,11.80
2022-11-16T23:46:09.000Z,14.30
2022-11-16T23:46:09.000Z,12.70
